Nearby METAR Reports

 

EGNM - Leeds And Bradford, United Kingdom
Distance from station: N 11mi, 18km
Updated: 06/08/2020 19:20
Partly cloudy
Partly cloudy
 Wind from S
Wind: S 5 mph , 7 km/h
Temperature: 21°C
Dew Point: 16°C
Humidity: 73%
Barometer: 1016 hPa
Clouds: Partly cloudy
Visibility: 6 miles , 10 km
Cloud details: Few Clouds 914 m
Partly cloudy 1097 m
2020/08/06 19:20 EGNM 061920Z 19004KT 9999 FEW030 SCT036 21/16 Q1016
EGXU - Linton-On-Ouse, United Kingdom
Distance from station: NNE 28mi, 45km
Updated: 06/08/2020 18:50
Mostly cloudy
Mostly cloudy
 Wind from S
Wind: S 3 mph , 6 km/h
Temperature: 23°C
Dew Point: 16°C
Humidity: 65%
Barometer: 1015 hPa
Clouds: Mostly cloudy
Visibility: 6 miles , 10 km
Cloud details: Mostly cloudy 1524 m
2020/08/06 18:50 EGXU 061850Z AUTO 17003KT 9999 BKN050/// 23/16 Q1015
 
EGCN - Doncaster Sheffield, United Kingdom
Distance from station: ESE 30mi, 45km
Updated: 06/08/2020 19:20
Few Clouds
Few Clouds
 Wind from S
Wind: S 7 mph , 11 km/h
Temperature: 22°C
Dew Point: 19°C
Humidity: 83%
Barometer: 1017 hPa
Clouds: Few Clouds
Visibility: 6 miles , 10 km
Cloud details: Few Clouds 732 m
2020/08/06 19:20 EGCN 061920Z 18006KT 9999 FEW024 22/19 Q1017
EGXZ - Topcliffe RAF, United Kingdom
Distance from station: NNE 36mi, 57km
Updated: 06/08/2020 18:50
Clear
Clear
 Wind from SSW
Wind: SSW 6 mph , 9 km/h
Temperature: 22°C
Dew Point: 15°C
Humidity: 65%
Barometer: 1015 hPa
Clouds: Clear
Visibility: 6 miles , 10 km
2020/08/06 18:50 EGXZ 061850Z AUTO 20005KT 9999 NCD 22/15 Q1015
 
EGCC - Manchester Intl, United Kingdom
Distance from station: SW 36mi, 58km
Updated: 06/08/2020 19:20
Partly cloudy
Partly cloudy
 Wind from S
Wind: S 5 mph , 7 km/h
Temperature: 22°C
Dew Point: 18°C
Humidity: 78%
Barometer: 1016 hPa
Clouds: Partly cloudy
Visibility: 6 miles , 10 km
Cloud details: Few Clouds 884 m
Partly cloudy 1128 m
2020/08/06 19:20 EGCC 061920Z AUTO 19004KT 160V230 9999 FEW029 SCT037 22/18 Q1016 NOSIG
EGXE - Leeming RAF, United Kingdom
Distance from station: N 40mi, 65km
Updated: 06/08/2020 18:50
Few Clouds
Few Clouds
 Wind from S
Wind: S 6 mph , 9 km/h
Temperature: 22°C
Dew Point: 15°C
Humidity: 65%
Barometer: 1015 hPa
Clouds: Few Clouds
Visibility: 6 miles , 10 km
Cloud details: Few Clouds 1524 m
2020/08/06 18:50 EGXE 061850Z AUTO 19005KT 9999 FEW050/// 22/15 Q1015